sensor_id;sensor_type;location;lat;lon;timestamp;pressure;altitude;pressure_sealevel;temperature;humidity
22964;BME280;11648;49.306;6.934;2023-03-26T00:01:20;97886.25;;;11.43;71.56
22964;BME280;11648;49.306;6.934;2023-03-26T00:03:47;97882.94;;;11.35;71.69
22964;BME280;11648;49.306;6.934;2023-03-26T00:06:29;97870.16;;;11.54;70.79
22964;BME280;11648;49.306;6.934;2023-03-26T00:08:57;97867.63;;;11.51;70.84
22964;BME280;11648;49.306;6.934;2023-03-26T00:11:26;97861.66;;;11.43;70.99
22964;BME280;11648;49.306;6.934;2023-03-26T00:13:54;97866.63;;;11.56;70.75
22964;BME280;11648;49.306;6.934;2023-03-26T00:16:26;97860.50;;;11.54;70.79
22964;BME280;11648;49.306;6.934;2023-03-26T00:18:54;97858.19;;;11.40;70.74
22964;BME280;11648;49.306;6.934;2023-03-26T00:21:22;97857.25;;;11.43;70.51
22964;BME280;11648;49.306;6.934;2023-03-26T00:23:57;97863.28;;;11.48;70.35
22964;BME280;11648;49.306;6.934;2023-03-26T00:26:28;97853.81;;;11.41;70.16
22964;BME280;11648;49.306;6.934;2023-03-26T00:28:57;97853.34;;;11.59;69.72
22964;BME280;11648;49.306;6.934;2023-03-26T00:31:25;97854.09;;;11.64;69.40
22964;BME280;11648;49.306;6.934;2023-03-26T00:33:52;97854.06;;;11.66;69.18
22964;BME280;11648;49.306;6.934;2023-03-26T00:36:24;97850.38;;;11.74;69.07
22964;BME280;11648;49.306;6.934;2023-03-26T00:38:52;97846.88;;;11.74;68.88
22964;BME280;11648;49.306;6.934;2023-03-26T00:41:21;97844.38;;;11.66;68.77
22964;BME280;11648;49.306;6.934;2023-03-26T00:43:53;97846.06;;;11.69;68.62
22964;BME280;11648;49.306;6.934;2023-03-26T00:46:23;97831.84;;;11.76;68.42
22964;BME280;11648;49.306;6.934;2023-03-26T00:48:51;97826.66;;;11.73;68.21
22964;BME280;11648;49.306;6.934;2023-03-26T00:51:19;97827.84;;;11.95;67.67
22964;BME280;11648;49.306;6.934;2023-03-26T00:53:48;97828.41;;;11.74;67.78
22964;BME280;11648;49.306;6.934;2023-03-26T00:56:15;97811.06;;;11.64;67.85
22964;BME280;11648;49.306;6.934;2023-03-26T00:58:42;97817.19;;;11.64;68.56
22964;BME280;11648;49.306;6.934;2023-03-26T01:01:12;97815.31;;;11.69;68.32
22964;BME280;11648;49.306;6.934;2023-03-26T01:03:41;97811.56;;;11.79;68.56
22964;BME280;11648;49.306;6.934;2023-03-26T01:06:32;97812.19;;;11.54;68.77
22964;BME280;11648;49.306;6.934;2023-03-26T01:09:05;97802.53;;;11.88;68.21
22964;BME280;11648;49.306;6.934;2023-03-26T01:11:36;97794.50;;;11.57;68.58
22964;BME280;11648;49.306;6.934;2023-03-26T01:14:04;97790.72;;;11.69;68.49
22964;BME280;11648;49.306;6.934;2023-03-26T01:16:37;97784.44;;;11.39;68.66
22964;BME280;11648;49.306;6.934;2023-03-26T01:22:19;97772.91;;;11.78;68.00
22964;BME280;11648;49.306;6.934;2023-03-26T01:24:46;97766.06;;;11.71;68.26
22964;BME280;11648;49.306;6.934;2023-03-26T01:29:55;97753.59;;;12.09;67.80
22964;BME280;11648;49.306;6.934;2023-03-26T01:35:20;97752.66;;;12.11;68.21
22964;BME280;11648;49.306;6.934;2023-03-26T01:38:00;97746.25;;;12.20;68.11
22964;BME280;11648;49.306;6.934;2023-03-26T01:40:34;97744.50;;;12.20;67.93
22964;BME280;11648;49.306;6.934;2023-03-26T01:43:31;97743.72;;;12.17;68.51
22964;BME280;11648;49.306;6.934;2023-03-26T01:46:04;97734.94;;;12.15;68.22
22964;BME280;11648;49.306;6.934;2023-03-26T01:48:37;97729.78;;;12.12;68.44
22964;BME280;11648;49.306;6.934;2023-03-26T01:51:06;97727.97;;;12.14;68.02
22964;BME280;11648;49.306;6.934;2023-03-26T01:53:37;97718.31;;;12.13;68.66
22964;BME280;11648;49.306;6.934;2023-03-26T01:56:24;97706.72;;;12.18;68.15
22964;BME280;11648;49.306;6.934;2023-03-26T02:04:24;97685.81;;;12.11;68.23
22964;BME280;11648;49.306;6.934;2023-03-26T02:06:59;97685.03;;;12.09;68.79
22964;BME280;11648;49.306;6.934;2023-03-26T02:09:34;97674.59;;;12.04;68.92
22964;BME280;11648;49.306;6.934;2023-03-26T02:12:04;97675.44;;;12.06;68.55
22964;BME280;11648;49.306;6.934;2023-03-26T02:14:32;97673.22;;;11.91;68.58
22964;BME280;11648;49.306;6.934;2023-03-26T02:16:59;97661.56;;;12.00;68.48
22964;BME280;11648;49.306;6.934;2023-03-26T02:19:26;97661.47;;;12.03;68.16
22964;BME280;11648;49.306;6.934;2023-03-26T02:21:53;97661.38;;;12.06;68.80
22964;BME280;11648;49.306;6.934;2023-03-26T02:24:26;97654.47;;;12.00;68.38
22964;BME280;11648;49.306;6.934;2023-03-26T02:26:55;97652.72;;;12.01;68.62
22964;BME280;11648;49.306;6.934;2023-03-26T02:29:23;97656.44;;;11.94;69.23
22964;BME280;11648;49.306;6.934;2023-03-26T02:31:52;97651.00;;;12.00;69.50
22964;BME280;11648;49.306;6.934;2023-03-26T02:34:19;97645.88;;;11.95;69.27
22964;BME280;11648;49.306;6.934;2023-03-26T02:36:51;97631.44;;;12.07;69.31
22964;BME280;11648;49.306;6.934;2023-03-26T02:39:18;97631.94;;;11.90;69.00
22964;BME280;11648;49.306;6.934;2023-03-26T02:41:52;97629.41;;;11.87;69.81
22964;BME280;11648;49.306;6.934;2023-03-26T02:44:19;97629.59;;;11.79;70.09
22964;BME280;11648;49.306;6.934;2023-03-26T02:46:58;97616.13;;;11.90;69.61
22964;BME280;11648;49.306;6.934;2023-03-26T02:49:43;97608.41;;;11.84;69.90
22964;BME280;11648;49.306;6.934;2023-03-26T02:52:16;97602.16;;;11.86;70.12
22964;BME280;11648;49.306;6.934;2023-03-26T02:54:46;97596.75;;;11.91;69.75
22964;BME280;11648;49.306;6.934;2023-03-26T02:57:22;97596.56;;;11.97;69.55
22964;BME280;11648;49.306;6.934;2023-03-26T03:00:09;97594.53;;;12.07;69.22
22964;BME280;11648;49.306;6.934;2023-03-26T03:02:43;97591.25;;;11.99;69.53
22964;BME280;11648;49.306;6.934;2023-03-26T03:05:45;97587.78;;;11.97;69.37
22964;BME280;11648;49.306;6.934;2023-03-26T03:08:12;97577.53;;;11.87;69.75
22964;BME280;11648;49.306;6.934;2023-03-26T03:11:02;97578.94;;;11.99;69.87
22964;BME280;11648;49.306;6.934;2023-03-26T03:13:37;97568.28;;;12.02;69.78
22964;BME280;11648;49.306;6.934;2023-03-26T03:16:04;97567.22;;;12.08;69.47
22964;BME280;11648;49.306;6.934;2023-03-26T03:18:32;97562.81;;;12.08;69.58
22964;BME280;11648;49.306;6.934;2023-03-26T03:20:59;97557.50;;;12.10;69.55
22964;BME280;11648;49.306;6.934;2023-03-26T03:23:26;97546.19;;;12.06;69.46
22964;BME280;11648;49.306;6.934;2023-03-26T03:26:02;97546.28;;;12.03;69.88
22964;BME280;11648;49.306;6.934;2023-03-26T03:28:31;97536.19;;;12.16;69.41
22964;BME280;11648;49.306;6.934;2023-03-26T03:30:58;97517.56;;;12.20;68.86
22964;BME280;11648;49.306;6.934;2023-03-26T03:33:29;97514.63;;;12.29;69.24
22964;BME280;11648;49.306;6.934;2023-03-26T03:35:56;97524.38;;;11.72;70.36
22964;BME280;11648;49.306;6.934;2023-03-26T03:38:23;97521.91;;;11.95;70.64
22964;BME280;11648;49.306;6.934;2023-03-26T03:40:51;97525.47;;;11.93;70.29
22964;BME280;11648;49.306;6.934;2023-03-26T03:43:21;97519.56;;;12.14;69.74
22964;BME280;11648;49.306;6.934;2023-03-26T03:46:01;97520.31;;;12.17;69.49
22964;BME280;11648;49.306;6.934;2023-03-26T03:48:35;97510.69;;;12.15;69.53
22964;BME280;11648;49.306;6.934;2023-03-26T03:51:05;97497.94;;;12.03;69.55
22964;BME280;11648;49.306;6.934;2023-03-26T03:53:50;97498.94;;;11.99;70.46
22964;BME280;11648;49.306;6.934;2023-03-26T03:56:31;97488.38;;;11.99;70.82
22964;BME280;11648;49.306;6.934;2023-03-26T03:59:31;97481.16;;;12.04;70.88
22964;BME280;11648;49.306;6.934;2023-03-26T04:01:58;97476.72;;;12.06;70.68
22964;BME280;11648;49.306;6.934;2023-03-26T04:04:32;97470.69;;;12.02;71.24
22964;BME280;11648;49.306;6.934;2023-03-26T04:07:03;97469.81;;;12.02;71.14
22964;BME280;11648;49.306;6.934;2023-03-26T04:09:46;97464.69;;;11.97;71.59
22964;BME280;11648;49.306;6.934;2023-03-26T04:12:16;97465.88;;;11.88;71.82
22964;BME280;11648;49.306;6.934;2023-03-26T04:14:57;97459.81;;;11.85;72.35
22964;BME280;11648;49.306;6.934;2023-03-26T04:17:24;97464.81;;;11.65;73.19
22964;BME280;11648;49.306;6.934;2023-03-26T04:19:54;97462.34;;;11.88;72.99
22964;BME280;11648;49.306;6.934;2023-03-26T04:22:25;97462.91;;;11.70;73.23
22964;BME280;11648;49.306;6.934;2023-03-26T04:25:04;97460.97;;;11.76;73.27
22964;BME280;11648;49.306;6.934;2023-03-26T04:27:43;97461.69;;;11.81;73.39
22964;BME280;11648;49.306;6.934;2023-03-26T04:30:18;97455.09;;;11.95;73.13
22964;BME280;11648;49.306;6.934;2023-03-26T04:32:52;97455.88;;;11.98;73.15
22964;BME280;11648;49.306;6.934;2023-03-26T04:35:25;97441.81;;;11.98;73.03
22964;BME280;11648;49.306;6.934;2023-03-26T04:37:54;97426.31;;;11.88;72.95
22964;BME280;11648;49.306;6.934;2023-03-26T04:40:27;97420.19;;;11.86;72.26
22964;BME280;11648;49.306;6.934;2023-03-26T04:43:16;97420.41;;;11.80;71.65
22964;BME280;11648;49.306;6.934;2023-03-26T04:45:46;97414.78;;;11.91;72.08
22964;BME280;11648;49.306;6.934;2023-03-26T04:48:14;97397.84;;;11.98;71.05
22964;BME280;11648;49.306;6.934;2023-03-26T04:50:42;97389.13;;;11.96;71.39
22964;BME280;11648;49.306;6.934;2023-03-26T04:53:13;97381.66;;;12.09;70.70
22964;BME280;11648;49.306;6.934;2023-03-26T04:56:05;97381.66;;;11.82;69.80
22964;BME280;11648;49.306;6.934;2023-03-26T04:59:10;97370.31;;;12.07;70.75
22964;BME280;11648;49.306;6.934;2023-03-26T05:01:40;97368.63;;;12.04;70.61
22964;BME280;11648;49.306;6.934;2023-03-26T05:04:12;97357.88;;;12.10;71.42
22964;BME280;11648;49.306;6.934;2023-03-26T05:06:40;97360.41;;;12.13;71.98
22964;BME280;11648;49.306;6.934;2023-03-26T05:09:16;97362.28;;;12.10;71.64
22964;BME280;11648;49.306;6.934;2023-03-26T05:12:02;97354.41;;;12.08;71.66
22964;BME280;11648;49.306;6.934;2023-03-26T05:14:37;97349.75;;;12.16;71.67
22964;BME280;11648;49.306;6.934;2023-03-26T05:17:13;97345.97;;;11.99;72.31
22964;BME280;11648;49.306;6.934;2023-03-26T05:19:40;97342.56;;;11.95;72.84
22964;BME280;11648;49.306;6.934;2023-03-26T05:22:07;97337.94;;;12.02;72.76
22964;BME280;11648;49.306;6.934;2023-03-26T05:24:39;97328.28;;;12.01;72.88
22964;BME280;11648;49.306;6.934;2023-03-26T05:27:06;97333.75;;;11.96;73.28
22964;BME280;11648;49.306;6.934;2023-03-26T05:29:34;97327.69;;;11.93;72.45
22964;BME280;11648;49.306;6.934;2023-03-26T05:32:01;97329.16;;;12.01;73.21
22964;BME280;11648;49.306;6.934;2023-03-26T05:34:27;97320.91;;;11.85;73.04
22964;BME280;11648;49.306;6.934;2023-03-26T05:36:54;97313.72;;;11.91;73.61
22964;BME280;11648;49.306;6.934;2023-03-26T05:39:51;97316.56;;;11.84;73.55
22964;BME280;11648;49.306;6.934;2023-03-26T05:42:37;97310.03;;;11.96;73.95
22964;BME280;11648;49.306;6.934;2023-03-26T05:45:30;97304.44;;;12.04;73.76
22964;BME280;11648;49.306;6.934;2023-03-26T05:48:01;97291.19;;;12.07;73.63
22964;BME280;11648;49.306;6.934;2023-03-26T05:50:28;97297.47;;;12.03;74.58
22964;BME280;11648;49.306;6.934;2023-03-26T05:52:58;97283.16;;;12.10;74.12
22964;BME280;11648;49.306;6.934;2023-03-26T05:56:03;97275.53;;;12.01;73.86
22964;BME280;11648;49.306;6.934;2023-03-26T05:58:48;97270.88;;;12.09;74.91
22964;BME280;11648;49.306;6.934;2023-03-26T06:01:50;97251.38;;;12.13;75.35
22964;BME280;11648;49.306;6.934;2023-03-26T06:04:41;97233.72;;;12.15;74.40
22964;BME280;11648;49.306;6.934;2023-03-26T06:07:27;97226.19;;;12.04;75.04
22964;BME280;11648;49.306;6.934;2023-03-26T06:10:07;97208.47;;;12.08;75.48
22964;BME280;11648;49.306;6.934;2023-03-26T06:12:35;97197.13;;;12.06;75.25
22964;BME280;11648;49.306;6.934;2023-03-26T06:15:03;97171.00;;;12.00;75.29
22964;BME280;11648;49.306;6.934;2023-03-26T06:17:46;97166.19;;;11.86;75.79
22964;BME280;11648;49.306;6.934;2023-03-26T06:20:29;97151.63;;;11.76;75.77
22964;BME280;11648;49.306;6.934;2023-03-26T06:22:57;97160.66;;;11.69;76.17
22964;BME280;11648;49.306;6.934;2023-03-26T06:25:41;97159.19;;;11.60;76.49
22964;BME280;11648;49.306;6.934;2023-03-26T06:28:32;97162.97;;;11.53;76.93
22964;BME280;11648;49.306;6.934;2023-03-26T06:31:11;97163.16;;;11.49;77.60
22964;BME280;11648;49.306;6.934;2023-03-26T06:33:49;97162.03;;;11.31;77.67
22964;BME280;11648;49.306;6.934;2023-03-26T06:36:18;97161.69;;;11.40;78.23
22964;BME280;11648;49.306;6.934;2023-03-26T06:38:48;97165.72;;;11.50;77.91
22964;BME280;11648;49.306;6.934;2023-03-26T06:41:14;97163.84;;;11.29;78.46
22964;BME280;11648;49.306;6.934;2023-03-26T06:44:08;97155.63;;;11.38;79.06
22964;BME280;11648;49.306;6.934;2023-03-26T06:47:04;97144.97;;;11.66;78.10
22964;BME280;11648;49.306;6.934;2023-03-26T06:49:57;97147.28;;;11.50;78.64
22964;BME280;11648;49.306;6.934;2023-03-26T06:52:26;97146.59;;;11.45;78.93
22964;BME280;11648;49.306;6.934;2023-03-26T06:55:22;97145.38;;;11.54;79.46
22964;BME280;11648;49.306;6.934;2023-03-26T06:58:12;97128.06;;;11.47;79.45
22964;BME280;11648;49.306;6.934;2023-03-26T07:00:57;97124.06;;;11.36;79.73
22964;BME280;11648;49.306;6.934;2023-03-26T07:03:43;97123.31;;;11.33;80.52
22964;BME280;11648;49.306;6.934;2023-03-26T07:06:28;97118.09;;;11.31;80.16
22964;BME280;11648;49.306;6.934;2023-03-26T07:09:13;97124.03;;;11.61;80.13
22964;BME280;11648;49.306;6.934;2023-03-26T07:12:04;97128.28;;;11.65;80.15
22964;BME280;11648;49.306;6.934;2023-03-26T07:15:02;97125.91;;;11.58;80.20
22964;BME280;11648;49.306;6.934;2023-03-26T07:17:44;97132.56;;;11.20;80.70
22964;BME280;11648;49.306;6.934;2023-03-26T07:20:15;97136.88;;;11.70;80.25
22964;BME280;11648;49.306;6.934;2023-03-26T07:22:43;97123.72;;;11.94;80.00
22964;BME280;11648;49.306;6.934;2023-03-26T07:25:16;97118.88;;;11.83;80.22
22964;BME280;11648;49.306;6.934;2023-03-26T07:34:48;97117.22;;;12.25;78.63
22964;BME280;11648;49.306;6.934;2023-03-26T07:40:45;97126.44;;;11.92;79.64
22964;BME280;11648;49.306;6.934;2023-03-26T07:43:57;97125.72;;;11.14;82.44
22964;BME280;11648;49.306;6.934;2023-03-26T07:46:53;97123.31;;;11.33;81.82
22964;BME280;11648;49.306;6.934;2023-03-26T07:49:53;97120.16;;;11.71;81.90
22964;BME280;11648;49.306;6.934;2023-03-26T07:52:47;97112.84;;;12.03;81.13
22964;BME280;11648;49.306;6.934;2023-03-26T07:56:21;97111.78;;;12.30;80.86
22964;BME280;11648;49.306;6.934;2023-03-26T07:59:14;97109.94;;;12.32;81.41
22964;BME280;11648;49.306;6.934;2023-03-26T08:08:33;97109.13;;;12.73;79.86
22964;BME280;11648;49.306;6.934;2023-03-26T08:16:54;97109.16;;;12.94;79.79
22964;BME280;11648;49.306;6.934;2023-03-26T08:25:32;97100.59;;;12.88;79.64
22964;BME280;11648;49.306;6.934;2023-03-26T08:28:24;97115.47;;;12.69;77.58
22964;BME280;11648;49.306;6.934;2023-03-26T08:30:55;97106.38;;;12.76;77.02
22964;BME280;11648;49.306;6.934;2023-03-26T08:33:25;97113.97;;;12.19;78.46
22964;BME280;11648;49.306;6.934;2023-03-26T08:35:53;97104.03;;;12.25;78.69
22964;BME280;11648;49.306;6.934;2023-03-26T08:38:20;97107.41;;;12.51;77.93
22964;BME280;11648;49.306;6.934;2023-03-26T08:46:26;97070.78;;;18.19;56.41
22964;BME280;11648;49.306;6.934;2023-03-26T08:49:54;97053.03;;;20.64;51.25
22964;BME280;11648;49.306;6.934;2023-03-26T09:15:26;97111.44;;;14.94;57.61
22964;BME280;11648;49.306;6.934;2023-03-26T09:20:52;97109.06;;;14.33;57.23
22964;BME280;11648;49.306;6.934;2023-03-26T09:29:06;97083.34;;;17.01;50.49
22964;BME280;11648;49.306;6.934;2023-03-26T09:45:30;97080.75;;;18.30;47.07
22964;BME280;11648;49.306;6.934;2023-03-26T09:56:11;97094.84;;;17.61;48.95
22964;BME280;11648;49.306;6.934;2023-03-26T10:10:30;97123.97;;;15.42;53.92
22964;BME280;11648;49.306;6.934;2023-03-26T10:13:10;97123.66;;;15.82;56.33
22964;BME280;11648;49.306;6.934;2023-03-26T10:16:15;97118.78;;;15.58;54.25
22964;BME280;11648;49.306;6.934;2023-03-26T10:19:18;97123.69;;;15.14;53.53
22964;BME280;11648;49.306;6.934;2023-03-26T10:27:22;97113.84;;;15.67;51.27
22964;BME280;11648;49.306;6.934;2023-03-26T10:35:28;97144.25;;;14.73;54.93
22964;BME280;11648;49.306;6.934;2023-03-26T10:38:50;97163.97;;;14.67;54.12
22964;BME280;11648;49.306;6.934;2023-03-26T10:41:20;97151.88;;;14.43;54.67
22964;BME280;11648;49.306;6.934;2023-03-26T10:49:19;97161.72;;;14.77;54.32
22964;BME280;11648;49.306;6.934;2023-03-26T10:52:31;97148.47;;;14.21;55.55
22964;BME280;11648;49.306;6.934;2023-03-26T10:54:57;97153.22;;;14.33;54.38
22964;BME280;11648;49.306;6.934;2023-03-26T11:00:23;97140.59;;;15.46;52.74
22964;BME280;11648;49.306;6.934;2023-03-26T11:11:44;97133.03;;;15.72;51.72
22964;BME280;11648;49.306;6.934;2023-03-26T11:14:26;97148.88;;;16.07;51.76
22964;BME280;11648;49.306;6.934;2023-03-26T11:17:15;97143.84;;;15.85;51.11
22964;BME280;11648;49.306;6.934;2023-03-26T11:25:33;97143.50;;;16.08;50.83
22964;BME280;11648;49.306;6.934;2023-03-26T11:33:17;97103.22;;;16.49;48.72
22964;BME280;11648;49.306;6.934;2023-03-26T11:35:49;97094.03;;;17.45;47.36
22964;BME280;11648;49.306;6.934;2023-03-26T11:38:31;97093.69;;;17.65;46.84
22964;BME280;11648;49.306;6.934;2023-03-26T11:41:11;97088.53;;;17.18;47.15
22964;BME280;11648;49.306;6.934;2023-03-26T11:43:51;97088.28;;;16.46;48.18
22964;BME280;11648;49.306;6.934;2023-03-26T11:46:22;97085.19;;;16.54;48.37
22964;BME280;11648;49.306;6.934;2023-03-26T11:48:54;97078.78;;;16.73;47.50
22964;BME280;11648;49.306;6.934;2023-03-26T11:54:00;97060.72;;;16.94;46.27
22964;BME280;11648;49.306;6.934;2023-03-26T11:56:32;97069.69;;;16.46;46.41
22964;BME280;11648;49.306;6.934;2023-03-26T11:59:17;97058.47;;;15.94;45.52
22964;BME280;11648;49.306;6.934;2023-03-26T12:01:50;97055.13;;;16.38;45.34
22964;BME280;11648;49.306;6.934;2023-03-26T12:04:38;97047.31;;;16.35;45.01
22964;BME280;11648;49.306;6.934;2023-03-26T12:07:08;97051.09;;;15.84;46.17
22964;BME280;11648;49.306;6.934;2023-03-26T12:10:00;97049.22;;;16.48;45.51
22964;BME280;11648;49.306;6.934;2023-03-26T12:12:45;97051.09;;;15.99;45.74
22964;BME280;11648;49.306;6.934;2023-03-26T12:15:13;97043.03;;;16.63;44.63
22964;BME280;11648;49.306;6.934;2023-03-26T12:17:41;97036.03;;;16.15;44.67
22964;BME280;11648;49.306;6.934;2023-03-26T12:20:40;97039.25;;;16.67;44.39
22964;BME280;11648;49.306;6.934;2023-03-26T12:26:14;97042.38;;;16.44;45.18
22964;BME280;11648;49.306;6.934;2023-03-26T12:28:49;97040.22;;;16.66;45.06
22964;BME280;11648;49.306;6.934;2023-03-26T12:31:17;97048.63;;;16.43;45.69
22964;BME280;11648;49.306;6.934;2023-03-26T12:34:03;97056.75;;;16.40;45.20
22964;BME280;11648;49.306;6.934;2023-03-26T12:36:32;97054.38;;;16.20;45.60
22964;BME280;11648;49.306;6.934;2023-03-26T12:39:21;97045.78;;;15.99;45.94
22964;BME280;11648;49.306;6.934;2023-03-26T12:42:25;97050.84;;;16.04;46.35
22964;BME280;11648;49.306;6.934;2023-03-26T12:45:13;97051.88;;;16.17;45.50
22964;BME280;11648;49.306;6.934;2023-03-26T12:47:40;97055.22;;;16.05;45.35
22964;BME280;11648;49.306;6.934;2023-03-26T12:59:13;97049.22;;;16.01;47.29
22964;BME280;11648;49.306;6.934;2023-03-26T13:02:18;97065.69;;;15.75;48.78
22964;BME280;11648;49.306;6.934;2023-03-26T13:10:35;97067.31;;;15.77;49.34
22964;BME280;11648;49.306;6.934;2023-03-26T13:18:54;97099.34;;;14.89;51.21
22964;BME280;11648;49.306;6.934;2023-03-26T13:25:04;97103.91;;;14.12;53.65
22964;BME280;11648;49.306;6.934;2023-03-26T13:36:35;97094.47;;;14.06;54.06
22964;BME280;11648;49.306;6.934;2023-03-26T13:39:18;97084.81;;;14.24;53.92
22964;BME280;11648;49.306;6.934;2023-03-26T13:41:54;97091.56;;;13.94;54.55
22964;BME280;11648;49.306;6.934;2023-03-26T13:47:07;97084.25;;;13.99;54.91
22964;BME280;11648;49.306;6.934;2023-03-26T13:52:29;97081.81;;;13.94;54.15
22964;BME280;11648;49.306;6.934;2023-03-26T13:55:27;97092.59;;;14.08;53.60
22964;BME280;11648;49.306;6.934;2023-03-26T13:58:00;97083.75;;;13.72;54.49
22964;BME280;11648;49.306;6.934;2023-03-26T14:01:00;97087.91;;;13.96;54.23
22964;BME280;11648;49.306;6.934;2023-03-26T14:06:07;97090.59;;;13.95;54.45
22964;BME280;11648;49.306;6.934;2023-03-26T14:08:41;97093.03;;;13.80;54.45
22964;BME280;11648;49.306;6.934;2023-03-26T14:11:27;97093.16;;;13.39;55.50
22964;BME280;11648;49.306;6.934;2023-03-26T14:14:11;97091.63;;;13.33;55.13
22964;BME280;11648;49.306;6.934;2023-03-26T14:16:43;97099.81;;;13.47;55.42
22964;BME280;11648;49.306;6.934;2023-03-26T14:19:48;97086.41;;;13.52;55.90
22964;BME280;11648;49.306;6.934;2023-03-26T14:22:36;97089.84;;;13.33;56.29
22964;BME280;11648;49.306;6.934;2023-03-26T14:33:36;97101.88;;;13.61;56.16
22964;BME280;11648;49.306;6.934;2023-03-26T14:41:50;97086.31;;;13.73;55.97
22964;BME280;11648;49.306;6.934;2023-03-26T14:47:19;97086.50;;;13.69;56.71
22964;BME280;11648;49.306;6.934;2023-03-26T14:50:00;97074.78;;;14.12;55.58
22964;BME280;11648;49.306;6.934;2023-03-26T14:52:48;97072.09;;;13.95;55.24
22964;BME280;11648;49.306;6.934;2023-03-26T14:58:00;97081.19;;;13.50;57.65
22964;BME280;11648;49.306;6.934;2023-03-26T15:00:55;97089.03;;;13.52;57.36
22964;BME280;11648;49.306;6.934;2023-03-26T15:09:23;97132.56;;;13.03;64.22
22964;BME280;11648;49.306;6.934;2023-03-26T15:18:06;97177.97;;;12.24;73.38
22964;BME280;11648;49.306;6.934;2023-03-26T15:38:27;97145.63;;;14.07;66.75
22964;BME280;11648;49.306;6.934;2023-03-26T15:41:12;97147.50;;;13.84;66.26
22964;BME280;11648;49.306;6.934;2023-03-26T15:49:23;97152.13;;;13.79;65.50
22964;BME280;11648;49.306;6.934;2023-03-26T15:54:44;97142.72;;;13.54;66.91
22964;BME280;11648;49.306;6.934;2023-03-26T15:57:40;97147.41;;;13.47;65.87
22964;BME280;11648;49.306;6.934;2023-03-26T16:00:30;97149.41;;;13.42;66.42
22964;BME280;11648;49.306;6.934;2023-03-26T16:11:05;97154.94;;;12.72;66.17
22964;BME280;11648;49.306;6.934;2023-03-26T16:21:52;97154.59;;;13.02;65.66
22964;BME280;11648;49.306;6.934;2023-03-26T16:24:26;97153.28;;;12.92;65.64
22964;BME280;11648;49.306;6.934;2023-03-26T16:33:14;97152.59;;;12.86;64.55
22964;BME280;11648;49.306;6.934;2023-03-26T16:38:25;97145.22;;;12.95;64.22
22964;BME280;11648;49.306;6.934;2023-03-26T16:41:22;97153.41;;;12.88;64.70
22964;BME280;11648;49.306;6.934;2023-03-26T16:43:57;97159.75;;;13.05;63.30
22964;BME280;11648;49.306;6.934;2023-03-26T16:46:35;97157.84;;;13.10;63.04
22964;BME280;11648;49.306;6.934;2023-03-26T16:49:24;97146.22;;;13.34;63.08
22964;BME280;11648;49.306;6.934;2023-03-26T16:52:01;97145.69;;;13.04;62.89
22964;BME280;11648;49.306;6.934;2023-03-26T16:57:23;97165.28;;;12.78;63.99
22964;BME280;11648;49.306;6.934;2023-03-26T17:03:03;97147.97;;;12.71;64.41
22964;BME280;11648;49.306;6.934;2023-03-26T17:05:34;97151.53;;;12.47;64.25
22964;BME280;11648;49.306;6.934;2023-03-26T17:08:23;97145.78;;;12.59;64.34
22964;BME280;11648;49.306;6.934;2023-03-26T17:13:40;97153.34;;;12.68;64.49
22964;BME280;11648;49.306;6.934;2023-03-26T17:16:26;97149.03;;;12.44;64.93
22964;BME280;11648;49.306;6.934;2023-03-26T17:19:42;97158.19;;;12.35;64.66
22964;BME280;11648;49.306;6.934;2023-03-26T17:25:03;97168.88;;;12.09;65.46
22964;BME280;11648;49.306;6.934;2023-03-26T17:30:37;97184.66;;;11.86;66.15
22964;BME280;11648;49.306;6.934;2023-03-26T17:33:20;97185.88;;;12.01;66.25
22964;BME280;11648;49.306;6.934;2023-03-26T17:35:50;97189.00;;;11.88;66.44
22964;BME280;11648;49.306;6.934;2023-03-26T17:40:52;97189.06;;;11.61;66.90
22964;BME280;11648;49.306;6.934;2023-03-26T17:54:31;97198.28;;;11.49;67.99
22964;BME280;11648;49.306;6.934;2023-03-26T17:57:08;97201.06;;;11.71;67.66
22964;BME280;11648;49.306;6.934;2023-03-26T17:59:39;97200.13;;;11.72;67.60
22964;BME280;11648;49.306;6.934;2023-03-26T18:02:12;97200.72;;;11.54;68.35
22964;BME280;11648;49.306;6.934;2023-03-26T18:04:42;97199.09;;;11.76;67.97
22964;BME280;11648;49.306;6.934;2023-03-26T18:12:47;97190.38;;;11.49;69.25
22964;BME280;11648;49.306;6.934;2023-03-26T18:15:33;97185.94;;;11.50;69.33
22964;BME280;11648;49.306;6.934;2023-03-26T18:18:25;97187.25;;;11.38;69.35
22964;BME280;11648;49.306;6.934;2023-03-26T18:20:57;97193.44;;;11.35;69.22
22964;BME280;11648;49.306;6.934;2023-03-26T18:26:13;97199.97;;;11.50;69.17
22964;BME280;11648;49.306;6.934;2023-03-26T18:28:44;97205.72;;;11.61;68.87
22964;BME280;11648;49.306;6.934;2023-03-26T18:31:21;97187.91;;;11.68;68.69
22964;BME280;11648;49.306;6.934;2023-03-26T18:33:49;97196.94;;;11.87;68.14
22964;BME280;11648;49.306;6.934;2023-03-26T18:36:22;97199.50;;;11.64;68.73
22964;BME280;11648;49.306;6.934;2023-03-26T18:38:55;97200.56;;;11.84;68.24
22964;BME280;11648;49.306;6.934;2023-03-26T18:41:32;97203.69;;;11.71;68.55
22964;BME280;11648;49.306;6.934;2023-03-26T18:44:01;97204.94;;;11.59;68.99
22964;BME280;11648;49.306;6.934;2023-03-26T18:46:31;97216.88;;;11.69;69.33
22964;BME280;11648;49.306;6.934;2023-03-26T18:49:00;97214.03;;;11.24;70.30
22964;BME280;11648;49.306;6.934;2023-03-26T18:51:30;97222.03;;;11.21;71.17
22964;BME280;11648;49.306;6.934;2023-03-26T18:53:59;97216.09;;;11.67;71.36
22964;BME280;11648;49.306;6.934;2023-03-26T18:56:41;97226.31;;;11.76;71.72
22964;BME280;11648;49.306;6.934;2023-03-26T18:59:27;97221.06;;;11.76;71.31
22964;BME280;11648;49.306;6.934;2023-03-26T19:01:54;97222.06;;;11.72;71.79
22964;BME280;11648;49.306;6.934;2023-03-26T19:04:25;97242.25;;;11.47;73.23
22964;BME280;11648;49.306;6.934;2023-03-26T19:06:54;97235.22;;;11.74;71.83
22964;BME280;11648;49.306;6.934;2023-03-26T19:09:22;97245.84;;;11.18;74.73
22964;BME280;11648;49.306;6.934;2023-03-26T19:12:04;97253.63;;;11.49;72.93